createdAt,value
2017-07-22T00:00:25.597Z,26.2
2017-07-22T00:01:35.512Z,26.2
2017-07-22T00:02:45.451Z,26.26
2017-07-22T00:03:55.676Z,26.29
2017-07-22T00:05:05.277Z,26.07
2017-07-22T00:06:14.887Z,26.21
2017-07-22T00:07:25.101Z,26.18
2017-07-22T00:08:35.042Z,26.21
2017-07-22T00:09:44.960Z,26.1
2017-07-22T00:10:55.176Z,26.12
2017-07-22T00:12:05.398Z,26.15
2017-07-22T00:13:15.772Z,26.09
2017-07-22T00:14:25.994Z,26.15
2017-07-22T00:15:36.224Z,26.17
2017-07-22T00:16:45.842Z,26.12
2017-07-22T00:17:56.062Z,26.12
2017-07-22T00:19:05.676Z,26.1
2017-07-22T00:20:15.280Z,26.12
2017-07-22T00:21:24.585Z,26.09
2017-07-22T00:22:34.804Z,26.1
2017-07-22T00:23:45.027Z,26.07
2017-07-22T00:24:55.257Z,26.18
2017-07-22T00:26:05.176Z,26.1
2017-07-22T00:27:15.404Z,26.1
2017-07-22T00:28:25.340Z,26.13
2017-07-22T00:29:35.261Z,26.2
2017-07-22T00:30:45.486Z,26.07
2017-07-22T00:31:55.716Z,26.23
2017-07-22T00:33:05.951Z,26.13
2017-07-22T00:34:15.878Z,26.18
2017-07-22T00:35:26.093Z,26.2
2017-07-22T00:36:36.366Z,26.2
2017-07-22T00:37:46.578Z,26.17
2017-07-22T00:38:56.184Z,26.26
2017-07-22T00:40:06.409Z,26.07
2017-07-22T00:41:16.323Z,26.2
2017-07-22T00:42:26.288Z,26.18
2017-07-22T00:43:35.885Z,26.17
2017-07-22T00:44:46.113Z,26.1
2017-07-22T00:45:55.738Z,26.06
2017-07-22T00:47:05.646Z,26.09
2017-07-22T00:48:15.255Z,26.17
2017-07-22T00:49:25.160Z,26.1
2017-07-22T00:50:34.771Z,26.05
2017-07-22T00:51:44.999Z,26.12
2017-07-22T00:52:55.255Z,26.09
2017-07-22T00:54:05.467Z,26.09
2017-07-22T00:55:15.377Z,26.07
2017-07-22T00:56:25.306Z,26.1
2017-07-22T00:57:35.228Z,26.13
2017-07-22T00:58:44.823Z,26.12
2017-07-22T00:59:55.043Z,25.98
2017-07-22T01:01:04.337Z,26.07
2017-07-22T01:02:14.565Z,26.12
2017-07-22T01:03:24.786Z,25.99
2017-07-22T01:04:34.387Z,26.07
2017-07-22T01:05:44.300Z,25.97
2017-07-22T01:06:54.519Z,25.97
2017-07-22T01:08:04.737Z,25.98
2017-07-22T01:09:14.959Z,26.01
2017-07-22T01:10:24.865Z,26.05
2017-07-22T01:11:34.471Z,26.06
2017-07-22T01:12:44.380Z,25.98
2017-07-22T01:13:54.298Z,25.95
2017-07-22T01:15:04.229Z,25.92
2017-07-22T01:16:13.825Z,25.94
2017-07-22T01:17:23.887Z,25.95
2017-07-22T01:18:33.493Z,25.9
2017-07-22T01:19:43.399Z,25.94
2017-07-22T01:20:53.624Z,25.98
2017-07-22T01:22:03.849Z,25.91
2017-07-22T01:23:13.797Z,25.91
2017-07-22T01:24:23.717Z,25.9
2017-07-22T01:25:33.937Z,25.85
2017-07-22T01:26:43.542Z,25.91
2017-07-22T01:27:53.753Z,25.82
2017-07-22T01:29:03.797Z,25.79
2017-07-22T01:30:14.066Z,25.76
2017-07-22T01:31:23.979Z,25.69
2017-07-22T01:32:33.900Z,25.69
2017-07-22T01:33:44.125Z,25.69
2017-07-22T01:34:54.343Z,25.64
2017-07-22T01:36:04.269Z,25.65
2017-07-22T01:37:14.493Z,25.55
2017-07-22T01:38:24.396Z,25.54
2017-07-22T01:39:34.609Z,25.64
2017-07-22T01:40:44.538Z,25.57
2017-07-22T01:41:54.453Z,25.52
2017-07-22T01:43:04.366Z,25.5
2017-07-22T01:44:13.973Z,25.47
2017-07-22T01:45:23.885Z,25.5
2017-07-22T01:46:33.484Z,25.39
2017-07-22T01:47:43.710Z,25.42
2017-07-22T01:48:53.629Z,25.39
2017-07-22T01:50:03.538Z,25.36
2017-07-22T01:51:13.444Z,25.4
2017-07-22T01:52:23.669Z,25.38
2017-07-22T01:53:33.897Z,25.33
2017-07-22T01:54:43.210Z,25.42
2017-07-22T01:55:52.824Z,25.33
2017-07-22T01:57:02.739Z,25.28
2017-07-22T01:58:12.952Z,25.35
2017-07-22T01:59:22.864Z,25.32
2017-07-22T02:00:33.083Z,25.33
2017-07-22T02:01:43.009Z,25.23
2017-07-22T02:02:53.244Z,25.27
2017-07-22T02:04:03.460Z,25.2
2017-07-22T02:05:13.688Z,25.23
2017-07-22T02:06:23.604Z,25.13
2017-07-22T02:07:32.933Z,25.1
2017-07-22T02:08:42.246Z,25.09
2017-07-22T02:09:51.858Z,25.06
2017-07-22T02:11:01.782Z,25.08
2017-07-22T02:12:12.002Z,24.93
2017-07-22T02:13:21.623Z,24.98
2017-07-22T02:14:31.855Z,24.91
2017-07-22T02:15:41.791Z,24.93
2017-07-22T02:16:52.015Z,24.96
2017-07-22T02:18:02.243Z,24.93
2017-07-22T02:19:12.179Z,24.91
2017-07-22T02:20:21.799Z,24.83
2017-07-22T02:21:31.102Z,24.87
2017-07-22T02:22:40.398Z,24.8
2017-07-22T02:23:50.321Z,24.84
2017-07-22T02:25:00.551Z,24.77
2017-07-22T02:26:10.182Z,24.78
2017-07-22T02:27:20.091Z,24.81
2017-07-22T02:28:30.402Z,24.81
2017-07-22T02:29:40.331Z,24.78
2017-07-22T02:30:50.027Z,24.9
2017-07-22T02:32:00.271Z,24.77
2017-07-22T02:33:10.196Z,24.8
2017-07-22T02:34:20.103Z,24.8
2017-07-22T02:35:30.016Z,24.88
2017-07-22T02:36:39.927Z,24.78
2017-07-22T02:37:49.530Z,24.91
2017-07-22T02:38:59.765Z,24.91
2017-07-22T02:40:09.683Z,24.91
2017-07-22T02:41:19.610Z,24.95
2017-07-22T02:42:29.844Z,24.99
2017-07-22T02:43:40.077Z,24.93
2017-07-22T02:44:49.697Z,24.9
2017-07-22T02:45:59.617Z,24.9
2017-07-22T02:47:09.852Z,25
2017-07-22T02:48:19.484Z,24.96
2017-07-22T02:49:29.399Z,24.95
2017-07-22T02:50:39.012Z,24.96
2017-07-22T02:51:49.241Z,24.95
2017-07-22T02:52:59.472Z,24.95
2017-07-22T02:54:09.392Z,24.99
2017-07-22T02:55:19.299Z,25.02
2017-07-22T02:56:29.517Z,24.95
2017-07-22T02:57:40.111Z,24.93
2017-07-22T02:58:49.722Z,25.03
2017-07-22T02:59:59.949Z,25.05
2017-07-22T03:01:09.871Z,25.14
2017-07-22T03:02:20.090Z,25.08
2017-07-22T03:03:29.715Z,25.02
2017-07-22T03:04:39.324Z,25.06
2017-07-22T03:05:49.542Z,25.13
2017-07-22T03:06:59.821Z,25.14
2017-07-22T03:08:09.733Z,25.2
2017-07-22T03:09:19.957Z,25.15
2017-07-22T03:10:29.867Z,25.14
2017-07-22T03:11:40.094Z,25.18
2017-07-22T03:12:50.015Z,25.21
2017-07-22T03:13:59.998Z,25.23
2017-07-22T03:15:09.917Z,25.21
2017-07-22T03:16:19.532Z,25.2
2017-07-22T03:17:29.750Z,25.21
2017-07-22T03:18:39.961Z,25.23
2017-07-22T03:19:49.564Z,25.15
2017-07-22T03:20:59.778Z,25.18
2017-07-22T03:22:09.389Z,25.17
2017-07-22T03:23:19.305Z,25.14
2017-07-22T03:24:29.222Z,25.14
2017-07-22T03:25:38.823Z,25.14
2017-07-22T03:26:48.742Z,25.17
2017-07-22T03:27:58.660Z,25.2
2017-07-22T03:29:08.880Z,25.14
2017-07-22T03:30:18.187Z,25.21
2017-07-22T03:31:27.804Z,25.15
2017-07-22T03:32:38.030Z,25.18
2017-07-22T03:33:48.276Z,25.18
2017-07-22T03:34:58.532Z,25.14
2017-07-22T03:36:08.751Z,25.18
2017-07-22T03:37:18.375Z,25.18
2017-07-22T03:38:28.597Z,25.17
2017-07-22T03:39:38.836Z,25.17
2017-07-22T03:40:48.756Z,25.1
2017-07-22T03:41:59.001Z,25.09
2017-07-22T03:43:08.928Z,25.18
2017-07-22T03:44:17.913Z,25.1
2017-07-22T03:45:27.834Z,25.08
2017-07-22T03:46:37.754Z,25.06
2017-07-22T03:47:47.060Z,25.14
2017-07-22T03:48:57.134Z,25.13
2017-07-22T03:50:07.352Z,25.13
2017-07-22T03:51:17.273Z,25.14
2017-07-22T03:52:27.522Z,25.13
2017-07-22T03:53:37.129Z,25.03
2017-07-22T03:54:47.046Z,25.13
2017-07-22T03:55:56.669Z,25.06
2017-07-22T03:57:06.612Z,25.03
2017-07-22T03:58:15.630Z,25.06
2017-07-22T03:59:25.844Z,25.13
2017-07-22T04:00:35.453Z,25.09
2017-07-22T04:01:45.063Z,25.08
2017-07-22T04:02:55.287Z,25.05
2017-07-22T04:04:04.904Z,25.05
2017-07-22T04:05:15.130Z,25.09
2017-07-22T04:06:24.781Z,25.09
2017-07-22T04:07:34.720Z,25.06
2017-07-22T04:08:44.628Z,25.05
2017-07-22T04:09:54.538Z,24.99
2017-07-22T04:11:04.150Z,25.03
2017-07-22T04:12:14.371Z,25.08
2017-07-22T04:13:24.278Z,25.05
2017-07-22T04:14:34.501Z,24.99
2017-07-22T04:15:44.750Z,25.05
2017-07-22T04:16:54.418Z,24.95
2017-07-22T04:18:04.630Z,25.03
2017-07-22T04:19:14.564Z,24.98
2017-07-22T04:20:23.880Z,25
2017-07-22T04:21:33.481Z,24.95
2017-07-22T04:22:43.408Z,24.95
2017-07-22T04:23:53.025Z,24.96
2017-07-22T04:25:02.622Z,24.93
2017-07-22T04:26:12.849Z,24.95
2017-07-22T04:27:22.454Z,24.96
2017-07-22T04:28:32.080Z,24.98
2017-07-22T04:29:42.314Z,24.96
2017-07-22T04:30:52.557Z,24.96
2017-07-22T04:32:02.474Z,25.02
2017-07-22T04:33:12.696Z,24.98
2017-07-22T04:34:22.323Z,24.96
2017-07-22T04:35:32.240Z,24.95
2017-07-22T04:36:42.148Z,24.96
2017-07-22T04:37:52.369Z,25.05
2017-07-22T04:39:02.293Z,24.99
2017-07-22T04:40:12.520Z,25.02
2017-07-22T04:41:22.136Z,24.98
2017-07-22T04:42:31.743Z,25
2017-07-22T04:43:41.662Z,24.99
2017-07-22T04:44:51.882Z,24.98
2017-07-22T04:46:01.815Z,24.99
2017-07-22T04:47:11.429Z,25.05
2017-07-22T04:48:21.380Z,24.96
2017-07-22T04:49:31.007Z,25.02
2017-07-22T04:50:40.935Z,24.96
2017-07-22T04:51:50.546Z,24.96
2017-07-22T04:53:00.205Z,25.05
2017-07-22T04:54:10.128Z,25.13
2017-07-22T04:55:20.339Z,25.06
2017-07-22T04:56:29.955Z,25.14
2017-07-22T04:57:39.570Z,25.15
2017-07-22T04:58:49.808Z,25.06
2017-07-22T04:59:59.731Z,25.08
2017-07-22T05:01:09.655Z,25.13
2017-07-22T05:02:19.588Z,25.1
2017-07-22T05:03:29.844Z,25.2
2017-07-22T05:04:39.769Z,25.15
2017-07-22T05:05:49.673Z,25.14
2017-07-22T05:06:58.972Z,25.1
2017-07-22T05:08:09.208Z,25.15
2017-07-22T05:09:19.441Z,25.18
2017-07-22T05:10:28.752Z,25.14
2017-07-22T05:11:38.367Z,25.14
2017-07-22T05:12:48.296Z,25.13
2017-07-22T05:13:57.903Z,25.09
2017-07-22T05:15:07.215Z,25.15
2017-07-22T05:16:17.144Z,25.17
2017-07-22T05:17:26.741Z,25.25
2017-07-22T05:18:36.361Z,25.3
2017-07-22T05:19:46.268Z,25.24
2017-07-22T05:20:56.186Z,25.23
2017-07-22T05:22:05.807Z,25.21
2017-07-22T05:23:15.409Z,25.3
2017-07-22T05:24:25.021Z,25.3
2017-07-22T05:25:34.953Z,25.4
2017-07-22T05:26:45.186Z,25.52
2017-07-22T05:27:54.496Z,25.55
2017-07-22T05:29:04.105Z,25.67
2017-07-22T05:30:14.038Z,25.67
2017-07-22T05:31:23.965Z,25.65
2017-07-22T05:32:34.181Z,25.67
2017-07-22T05:33:44.095Z,25.69
2017-07-22T05:34:53.739Z,25.62
2017-07-22T05:36:03.375Z,25.64
2017-07-22T05:37:13.298Z,25.62
2017-07-22T05:38:23.222Z,25.7
2017-07-22T05:39:33.131Z,25.67
2017-07-22T05:40:43.078Z,25.69
2017-07-22T05:41:52.987Z,25.73
2017-07-22T05:43:02.909Z,25.69
2017-07-22T05:44:12.505Z,25.73
2017-07-22T05:45:22.420Z,25.73
2017-07-22T05:46:32.342Z,25.76
2017-07-22T05:47:42.561Z,25.8
2017-07-22T05:48:52.470Z,25.73
2017-07-22T05:50:02.110Z,25.76
2017-07-22T05:51:11.722Z,25.83
2017-07-22T05:52:21.934Z,25.8
2017-07-22T05:53:31.565Z,25.88
2017-07-22T05:54:41.810Z,25.91
2017-07-22T05:55:51.428Z,25.87
2017-07-22T05:57:01.652Z,25.82
2017-07-22T05:58:11.565Z,25.9
2017-07-22T05:59:21.803Z,25.91
2017-07-22T06:00:31.731Z,25.88
2017-07-22T06:01:41.941Z,25.94
2017-07-22T06:02:51.863Z,25.97
2017-07-22T06:04:01.469Z,25.95
2017-07-22T06:05:11.396Z,25.97
2017-07-22T06:06:21.623Z,25.98
2017-07-22T06:07:31.559Z,25.91
2017-07-22T06:08:41.172Z,25.95
2017-07-22T06:09:51.083Z,25.97
2017-07-22T06:11:01.311Z,25.97
2017-07-22T06:12:11.231Z,25.95
2017-07-22T06:13:21.164Z,25.94
2017-07-22T06:14:31.400Z,26.06
2017-07-22T06:15:41.330Z,25.98
2017-07-22T06:16:51.548Z,26.09
2017-07-22T06:18:01.186Z,26.13
2017-07-22T06:19:11.406Z,26.09
2017-07-22T06:20:21.019Z,26.17
2017-07-22T06:21:30.631Z,26.21
2017-07-22T06:22:40.867Z,26.12
2017-07-22T06:23:50.501Z,26.05
2017-07-22T06:25:00.724Z,26.07
2017-07-22T06:26:10.636Z,26.05
2017-07-22T06:27:20.866Z,26.05
2017-07-22T06:28:31.079Z,26.15
2017-07-22T06:29:41.295Z,26.06
2017-07-22T06:30:51.520Z,26.13
2017-07-22T06:32:00.522Z,26.06
2017-07-22T06:33:10.441Z,26.07
2017-07-22T06:34:20.346Z,26.09
2017-07-22T06:35:30.596Z,26.25
2017-07-22T06:36:40.844Z,26.21
2017-07-22T06:37:50.809Z,26.23
2017-07-22T06:39:01.455Z,26.21
2017-07-22T06:40:11.452Z,26.23
2017-07-22T06:41:21.714Z,26.25
2017-07-22T06:42:32.358Z,26.26
2017-07-22T06:43:41.961Z,26.33
2017-07-22T06:44:52.302Z,26.3
2017-07-22T06:46:01.912Z,26.33
2017-07-22T06:47:13.313Z,26.35
2017-07-22T06:48:23.462Z,26.33
2017-07-22T06:49:33.418Z,26.36
2017-07-22T06:50:43.361Z,26.37
2017-07-22T06:51:53.584Z,26.37
2017-07-22T06:53:04.011Z,26.44
2017-07-22T06:54:13.924Z,26.35
2017-07-22T06:55:23.228Z,26.43
2017-07-22T06:56:33.446Z,26.44
2017-07-22T06:57:42.750Z,26.47
2017-07-22T06:58:52.358Z,26.48
2017-07-22T07:00:02.579Z,26.51
2017-07-22T07:01:12.492Z,26.55
2017-07-22T07:02:22.442Z,26.57
2017-07-22T07:03:32.045Z,26.69
2017-07-22T07:04:41.645Z,27.04
2017-07-22T07:05:51.864Z,27.31
2017-07-22T07:07:01.160Z,27.62
2017-07-22T07:08:11.400Z,28
2017-07-22T07:09:21.317Z,28.39
2017-07-22T07:10:30.935Z,28.66
2017-07-22T07:11:40.877Z,28.83
2017-07-22T07:12:51.093Z,29.18
2017-07-22T07:14:00.724Z,29.37
2017-07-22T07:15:10.329Z,29.53
2017-07-22T07:16:20.543Z,29.83
2017-07-22T07:17:30.773Z,30.13
2017-07-22T07:18:40.699Z,30.43
2017-07-22T07:19:50.621Z,30.55
2017-07-22T07:21:00.850Z,30.86
2017-07-22T07:22:10.529Z,30.95
2017-07-22T07:23:20.463Z,31.1
2017-07-22T07:24:30.114Z,31.26
2017-07-22T07:25:40.343Z,31.38
2017-07-22T07:26:50.267Z,31.58
2017-07-22T07:27:59.896Z,31.76
2017-07-22T07:29:09.807Z,31.96
2017-07-22T07:30:19.747Z,32.18
2017-07-22T07:31:29.433Z,32.38
2017-07-22T07:32:39.517Z,32.59
2017-07-22T07:33:49.145Z,32.7
2017-07-22T07:34:59.073Z,32.93
2017-07-22T07:36:08.989Z,33.09
2017-07-22T07:37:18.912Z,33.32
2017-07-22T07:38:29.146Z,33.32
2017-07-22T07:39:39.073Z,33.42
2017-07-22T07:40:48.687Z,33.56
2017-07-22T07:41:58.392Z,33.75
2017-07-22T07:43:07.688Z,33.71
2017-07-22T07:44:17.609Z,33.5
2017-07-22T07:45:27.836Z,33.01
2017-07-22T07:46:38.067Z,32.72
2017-07-22T07:47:48.529Z,32.47
2017-07-22T07:48:58.452Z,32.11
2017-07-22T07:50:08.660Z,31.8
2017-07-22T07:51:18.282Z,31.65
2017-07-22T07:52:28.506Z,31.44
2017-07-22T07:53:38.126Z,31.39
2017-07-22T07:54:47.732Z,31.54
2017-07-22T07:55:57.657Z,31.61
2017-07-22T07:57:07.669Z,31.61
2017-07-22T07:58:17.630Z,31.36
2017-07-22T07:59:27.247Z,31.29
2017-07-22T08:00:37.472Z,31.26
2017-07-22T08:01:47.400Z,31.06
2017-07-22T08:02:57.320Z,30.88
2017-07-22T08:04:07.570Z,30.76
2017-07-22T08:05:17.191Z,30.64
2017-07-22T08:06:27.417Z,30.65
2017-07-22T08:07:37.649Z,30.99
2017-07-22T08:08:46.955Z,31.46
2017-07-22T08:09:57.195Z,31.95
2017-07-22T08:11:07.407Z,32.23
2017-07-22T08:12:17.328Z,32.25
2017-07-22T08:13:27.552Z,32.28
2017-07-22T08:14:37.482Z,32.51
2017-07-22T08:15:47.711Z,32.94
2017-07-22T08:16:57.938Z,33.34
2017-07-22T08:18:07.860Z,33.54
2017-07-22T08:19:18.105Z,33.81
2017-07-22T08:20:27.720Z,33.94
2017-07-22T08:21:37.647Z,33.88
2017-07-22T08:22:47.266Z,33.91
2017-07-22T08:23:57.496Z,33.78
2017-07-22T08:25:07.419Z,33.57
2017-07-22T08:26:17.340Z,33.37
2017-07-22T08:27:27.596Z,33.01
2017-07-22T08:28:37.361Z,32.74
2017-07-22T08:29:47.285Z,32.45
2017-07-22T08:30:56.897Z,32.38
2017-07-22T08:32:07.120Z,32.43
2017-07-22T08:33:17.056Z,32.93
2017-07-22T08:34:26.980Z,33.35
2017-07-22T08:35:37.204Z,33.78
2017-07-22T08:36:47.122Z,34.28
2017-07-22T08:37:57.040Z,34.72
2017-07-22T08:39:06.652Z,34.96
2017-07-22T08:40:16.883Z,35.25
2017-07-22T08:41:26.507Z,35.65
2017-07-22T08:42:36.752Z,35.96
2017-07-22T08:43:46.358Z,36.09
2017-07-22T08:44:56.589Z,36.09
2017-07-22T08:46:06.516Z,35.93
2017-07-22T08:47:16.154Z,35.63
2017-07-22T08:48:26.068Z,35.44
2017-07-22T08:49:36.334Z,35.23
2017-07-22T08:50:45.642Z,34.89
2017-07-22T08:51:55.574Z,34.59
2017-07-22T08:53:05.527Z,34.16
2017-07-22T08:54:15.450Z,33.82
2017-07-22T08:55:25.370Z,33.65
2017-07-22T08:56:34.679Z,33.45
2017-07-22T08:57:44.626Z,33.32
2017-07-22T08:58:54.556Z,33.11
2017-07-22T09:00:04.487Z,32.94
2017-07-22T09:01:14.471Z,32.74
2017-07-22T09:02:24.688Z,32.55
2017-07-22T09:03:34.609Z,32.3
2017-07-22T09:04:44.833Z,32.01
2017-07-22T09:05:55.049Z,31.93
2017-07-22T09:07:04.969Z,31.73
2017-07-22T09:08:15.185Z,31.69
2017-07-22T09:09:25.108Z,31.57
2017-07-22T09:10:35.344Z,31.46
2017-07-22T09:11:45.273Z,31.26
2017-07-22T09:12:55.514Z,31.16
2017-07-22T09:14:05.758Z,31.07
2017-07-22T09:15:15.694Z,30.99
2017-07-22T09:16:25.307Z,30.86
2017-07-22T09:17:35.561Z,30.86
2017-07-22T09:18:45.517Z,30.67
2017-07-22T09:19:55.431Z,30.51
2017-07-22T09:21:05.335Z,30.35
2017-07-22T09:22:15.564Z,30.32
2017-07-22T09:23:25.482Z,30.17
2017-07-22T09:24:35.716Z,30.1
2017-07-22T09:25:45.334Z,30.04
2017-07-22T09:26:54.968Z,29.97
2017-07-22T09:28:04.900Z,29.82
2017-07-22T09:29:14.832Z,29.78
2017-07-22T09:30:24.761Z,29.63
2017-07-22T09:31:34.689Z,29.58
2017-07-22T09:32:44.608Z,29.6
2017-07-22T09:33:54.837Z,29.51
2017-07-22T09:35:04.768Z,29.36
2017-07-22T09:36:14.699Z,29.33
2017-07-22T09:37:24.944Z,29.31
2017-07-22T09:38:35.192Z,29.31
2017-07-22T09:39:45.444Z,29.26
2017-07-22T09:40:55.675Z,29.26
2017-07-22T09:42:05.273Z,29.23
2017-07-22T09:43:15.197Z,29.16
2017-07-22T09:44:25.119Z,29.15
2017-07-22T09:45:34.730Z,29.11
2017-07-22T09:46:44.645Z,28.95
2017-07-22T09:47:54.879Z,28.98
2017-07-22T09:49:05.106Z,29
2017-07-22T09:50:15.352Z,29
2017-07-22T09:51:25.274Z,28.9
2017-07-22T09:52:34.876Z,28.93
2017-07-22T09:53:45.137Z,28.81
2017-07-22T09:57:27.725Z,28.73
2017-07-22T09:58:37.032Z,28.71
2017-07-22T09:59:46.652Z,28.67
2017-07-22T10:00:56.578Z,28.64
2017-07-22T10:02:06.804Z,28.62
2017-07-22T10:03:16.418Z,28.61
2017-07-22T10:04:26.357Z,28.61
2017-07-22T10:05:36.597Z,28.56
2017-07-22T10:06:46.516Z,28.55
2017-07-22T10:07:56.742Z,28.54
2017-07-22T10:09:06.377Z,28.56
2017-07-22T10:10:16.603Z,28.48
2017-07-22T10:11:26.228Z,28.44
2017-07-22T10:12:35.532Z,28.49
2017-07-22T10:13:44.828Z,28.48
2017-07-22T10:14:54.750Z,28.52
2017-07-22T10:16:04.979Z,28.43
2017-07-22T10:17:14.589Z,28.39
2017-07-22T10:18:24.518Z,28.39
2017-07-22T10:19:34.750Z,28.34
2017-07-22T10:20:44.985Z,28.37
2017-07-22T10:21:54.604Z,28.29
2017-07-22T10:23:04.514Z,28.25
2017-07-22T10:24:14.428Z,28.29
2017-07-22T10:25:24.043Z,28.18
2017-07-22T10:26:33.967Z,28.17
2017-07-22T10:27:44.211Z,28.19
2017-07-22T10:28:53.853Z,28.19
2017-07-22T10:30:04.082Z,28.18
2017-07-22T10:31:14.327Z,28.11
2017-07-22T10:32:24.536Z,28.11
2017-07-22T10:33:34.762Z,28.11
2017-07-22T10:34:44.687Z,28.12
2017-07-22T10:35:54.604Z,28.12
2017-07-22T10:37:04.844Z,28.11
2017-07-22T10:38:14.460Z,28.03
2017-07-22T10:39:24.691Z,28.02
2017-07-22T10:40:34.633Z,28.07
2017-07-22T10:41:44.880Z,28.07
2017-07-22T10:42:54.488Z,28
2017-07-22T10:44:04.718Z,28.06
2017-07-22T10:45:14.328Z,28.02
2017-07-22T10:46:24.245Z,28
2017-07-22T10:47:34.493Z,27.97
2017-07-22T10:48:44.712Z,28
2017-07-22T10:49:54.631Z,27.97
2017-07-22T10:51:04.567Z,28.04
2017-07-22T10:52:14.173Z,28.02
2017-07-22T10:53:24.388Z,28.04
2017-07-22T10:54:33.716Z,28.06
2017-07-22T10:55:43.649Z,28.02
2017-07-22T10:56:53.887Z,28.03
2017-07-22T10:58:03.822Z,27.99
2017-07-22T10:59:13.446Z,27.94
2017-07-22T11:00:23.057Z,27.99
2017-07-22T11:01:33.315Z,28
2017-07-22T11:02:42.624Z,28.02
2017-07-22T11:03:52.861Z,27.88
2017-07-22T11:05:03.101Z,27.85
2017-07-22T11:06:13.016Z,27.84
2017-07-22T11:07:23.238Z,27.85
2017-07-22T11:08:33.171Z,27.85
2017-07-22T11:09:43.398Z,27.9
2017-07-22T11:10:53.323Z,27.9
2017-07-22T11:12:03.571Z,27.84
2017-07-22T11:13:12.887Z,27.87
2017-07-22T11:14:23.102Z,27.88
2017-07-22T11:15:32.717Z,27.85
2017-07-22T11:16:42.670Z,27.85
2017-07-22T11:17:52.903Z,27.9
2017-07-22T11:19:02.863Z,27.92
2017-07-22T11:20:12.473Z,27.87
2017-07-22T11:21:22.408Z,27.85
2017-07-22T11:22:32.320Z,27.92
2017-07-22T11:23:42.232Z,27.88
2017-07-22T11:24:51.846Z,27.88
2017-07-22T11:26:01.767Z,27.85
2017-07-22T11:27:11.383Z,27.82
2017-07-22T11:28:20.995Z,27.92
2017-07-22T11:29:30.289Z,27.87
2017-07-22T11:30:40.516Z,27.85
2017-07-22T11:31:50.753Z,27.79
2017-07-22T11:33:00.383Z,27.81
2017-07-22T11:34:10.610Z,27.79
2017-07-22T11:35:20.525Z,27.84
2017-07-22T11:36:30.442Z,27.82
2017-07-22T11:37:39.746Z,27.82
2017-07-22T11:38:49.349Z,27.75
2017-07-22T11:39:59.572Z,27.85
2017-07-22T11:41:09.492Z,27.75
2017-07-22T11:42:19.429Z,27.79
2017-07-22T11:43:29.043Z,27.85
2017-07-22T11:44:38.354Z,27.81
2017-07-22T11:45:48.280Z,27.79
2017-07-22T11:46:57.884Z,27.93
2017-07-22T11:48:07.836Z,27.82
2017-07-22T11:49:17.138Z,28
2017-07-22T11:50:27.055Z,27.92
2017-07-22T11:51:36.671Z,27.82
2017-07-22T11:52:46.581Z,27.84
2017-07-22T11:53:56.557Z,27.81
2017-07-22T11:55:06.800Z,27.9
2017-07-22T11:56:16.101Z,27.87
2017-07-22T11:57:26.013Z,27.79
2017-07-22T11:58:35.941Z,27.78
2017-07-22T11:59:45.857Z,27.81
2017-07-22T12:00:55.467Z,27.84
2017-07-22T12:02:05.387Z,27.85
2017-07-22T12:03:14.992Z,27.79
2017-07-22T12:04:25.209Z,27.85
2017-07-22T12:05:35.444Z,27.74
2017-07-22T12:06:45.676Z,27.77
2017-07-22T12:07:55.280Z,27.82
2017-07-22T12:09:04.890Z,27.82
2017-07-22T12:10:14.497Z,27.79
2017-07-22T12:11:24.735Z,27.77
2017-07-22T12:12:34.340Z,27.82
2017-07-22T12:13:43.965Z,27.82
2017-07-22T12:14:53.569Z,27.77
2017-07-22T12:16:03.490Z,27.7
2017-07-22T12:17:13.727Z,27.77
2017-07-22T12:18:23.349Z,27.67
2017-07-22T12:19:33.270Z,27.63
2017-07-22T12:20:43.195Z,27.69
2017-07-22T12:21:53.106Z,27.74
2017-07-22T12:23:03.351Z,27.69
2017-07-22T12:24:13.590Z,27.63
2017-07-22T12:25:23.520Z,27.69
2017-07-22T12:26:33.446Z,27.74
2017-07-22T12:27:43.358Z,27.77
2017-07-22T12:28:53.734Z,27.77
2017-07-22T12:30:03.074Z,27.69
2017-07-22T12:31:12.704Z,27.78
2017-07-22T12:32:22.317Z,27.78
2017-07-22T12:33:32.226Z,27.67
2017-07-22T12:34:42.194Z,27.74
2017-07-22T12:35:51.500Z,27.79
2017-07-22T12:37:01.769Z,27.79
2017-07-22T12:38:11.380Z,27.67
2017-07-22T12:39:21.615Z,27.74
2017-07-22T12:40:31.944Z,27.65
2017-07-22T12:41:41.858Z,27.77
2017-07-22T12:42:51.478Z,27.77
2017-07-22T12:44:01.126Z,27.77
2017-07-22T12:45:11.361Z,27.67
2017-07-22T12:46:21.276Z,27.7
2017-07-22T12:47:31.532Z,27.77
2017-07-22T12:48:41.464Z,27.66
2017-07-22T12:49:51.105Z,27.74
2017-07-22T12:51:01.023Z,27.63
2017-07-22T12:52:10.953Z,27.66
2017-07-22T12:53:20.869Z,27.77
2017-07-22T12:54:30.168Z,27.78
2017-07-22T12:55:39.480Z,27.66
2017-07-22T12:56:49.083Z,27.72
2017-07-22T12:57:58.698Z,27.66
2017-07-22T12:59:08.929Z,27.74
2017-07-22T13:00:19.169Z,27.77
2017-07-22T13:01:29.102Z,27.62
2017-07-22T13:02:39.316Z,27.69
2017-07-22T13:03:49.226Z,27.63
2017-07-22T13:04:59.472Z,27.69
2017-07-22T13:06:09.405Z,27.66
2017-07-22T13:07:19.334Z,27.7
2017-07-22T13:08:29.578Z,27.66
2017-07-22T13:09:39.527Z,27.67
2017-07-22T13:12:31.136Z,27.7
2017-07-22T13:13:41.069Z,27.79
2017-07-22T13:14:51.420Z,27.79
2017-07-22T13:16:01.652Z,27.78
2017-07-22T13:17:11.876Z,27.74
2017-07-22T13:18:22.097Z,27.72
2017-07-22T13:19:31.742Z,27.75
2017-07-22T13:20:41.973Z,27.74
2017-07-22T13:21:51.289Z,27.74
2017-07-22T13:23:01.213Z,27.77
2017-07-22T13:24:11.437Z,27.75
2017-07-22T13:25:21.056Z,27.84
2017-07-22T13:26:31.117Z,27.78
2017-07-22T13:27:40.738Z,27.84
2017-07-22T13:28:51.040Z,27.81
2017-07-22T13:30:01.282Z,27.79
2017-07-22T13:31:11.196Z,27.77
2017-07-22T13:32:21.112Z,27.84
2017-07-22T13:33:30.715Z,27.77
2017-07-22T13:34:40.015Z,27.82
2017-07-22T13:35:49.641Z,27.77
2017-07-22T13:36:59.874Z,27.81
2017-07-22T13:38:09.237Z,27.75
2017-07-22T13:39:18.847Z,27.84
2017-07-22T13:40:28.768Z,27.81
2017-07-22T13:41:38.996Z,27.78
2017-07-22T13:42:49.219Z,27.75
2017-07-22T13:43:59.606Z,27.75
2017-07-22T13:45:09.533Z,27.74
2017-07-22T13:46:19.765Z,27.79
2017-07-22T13:47:29.992Z,27.77
2017-07-22T13:48:39.593Z,27.78
2017-07-22T13:49:49.820Z,27.69
2017-07-22T13:51:00.040Z,27.78
2017-07-22T13:52:10.261Z,27.7
2017-07-22T13:53:20.483Z,27.82
2017-07-22T13:54:30.711Z,27.72
2017-07-22T13:55:40.948Z,27.79
2017-07-22T13:56:50.559Z,27.87
2017-07-22T13:58:00.169Z,27.79
2017-07-22T13:59:10.083Z,27.77
2017-07-22T14:00:20.006Z,27.79
2017-07-22T14:01:29.656Z,27.82
2017-07-22T14:02:39.566Z,27.81
2017-07-22T14:03:49.854Z,27.84
2017-07-22T14:05:00.097Z,27.75
2017-07-22T14:06:10.346Z,27.78
2017-07-22T14:07:20.262Z,27.84
2017-07-22T14:08:30.168Z,27.77
2017-07-22T14:09:40.111Z,27.79
2017-07-22T14:10:50.050Z,27.77
2017-07-22T14:11:59.955Z,27.82
2017-07-22T14:13:09.578Z,27.81
2017-07-22T14:14:19.815Z,27.77
2017-07-22T14:15:30.033Z,27.78
2017-07-22T14:16:40.242Z,27.78
2017-07-22T14:17:50.464Z,27.82
2017-07-22T14:19:00.233Z,27.82
2017-07-22T14:20:10.465Z,27.72
2017-07-22T14:21:20.705Z,27.79
2017-07-22T14:22:30.620Z,27.77
2017-07-22T14:23:40.847Z,27.84
2017-07-22T14:24:50.768Z,27.77
2017-07-22T14:26:00.999Z,27.77
2017-07-22T14:27:10.924Z,27.77
2017-07-22T14:28:20.842Z,27.79
2017-07-22T14:29:30.768Z,27.85
2017-07-22T14:30:40.993Z,27.85
2017-07-22T14:31:50.914Z,27.84
2017-07-22T14:33:00.218Z,27.81
2017-07-22T14:34:10.133Z,27.82
2017-07-22T14:35:20.048Z,27.9
2017-07-22T14:36:29.767Z,27.81
2017-07-22T14:37:39.381Z,27.85
2017-07-22T14:38:49.309Z,27.9
2017-07-22T14:39:59.544Z,27.85
2017-07-22T14:41:09.475Z,27.93
2017-07-22T14:42:19.076Z,27.85
2017-07-22T14:43:28.404Z,27.92
2017-07-22T14:44:38.354Z,27.92
2017-07-22T14:45:48.273Z,27.87
2017-07-22T14:46:58.181Z,27.84
2017-07-22T14:48:08.765Z,27.87
2017-07-22T14:49:18.995Z,27.81
2017-07-22T14:50:28.915Z,27.84
2017-07-22T14:51:39.147Z,27.85
2017-07-22T14:52:49.074Z,27.81
2017-07-22T14:53:59.289Z,27.84
2017-07-22T14:55:08.897Z,27.81
2017-07-22T14:56:18.842Z,27.9
2017-07-22T14:57:29.098Z,27.87
2017-07-22T14:58:39.049Z,27.88
2017-07-22T14:59:49.341Z,27.81
2017-07-22T15:00:59.645Z,27.79
2017-07-22T15:02:09.256Z,27.87
2017-07-22T15:03:19.191Z,27.88
2017-07-22T15:04:29.106Z,27.84
2017-07-22T15:05:38.394Z,27.85
2017-07-22T15:06:48.299Z,27.84
2017-07-22T15:07:58.208Z,27.87